Time;durP1;ratioP1;P1;durP2;ratioP2;P2;SDS_P1;SDS_P2;PMS_P1;PMS_P2;Temp;Humidity;BMP_temperature;BMP_pressure;BME280_temperature;BME280_humidity;BME280_pressure;Samples;Min_cycle;Max_cycle;Signal;HPM_P1;HPM_P2
2023/01/01 00:06:48;;;;;;;22.90;10.60;;;;;;;;;;21257378;27;20039;-62
2023/01/01 00:16:53;;;;;;;25.83;10.80;;;;;;;;;;21257059;27;20055;-62
2023/01/01 00:26:56;;;;;;;23.67;11.18;;;;;;;;;;21255718;27;20638;-63
2023/01/01 00:36:58;;;;;;;26.73;13.80;;;;;;;;;;21254629;27;20091;-63
2023/01/01 00:47:01;;;;;;;15.75;9.35;;;;;;;;;;21254528;27;20043;-63
2023/01/01 00:57:03;;;;;;;20.20;9.40;;;;;;;;;;21253784;27;20054;-63
2023/01/01 01:07:05;;;;;;;25.88;10.00;;;;;;;;;;21252323;27;20080;-64
2023/01/01 01:17:07;;;;;;;27.92;12.52;;;;;;;;;;21252736;27;20047;-61
2023/01/01 01:27:10;;;;;;;25.23;12.60;;;;;;;;;;21251261;27;20055;-63
2023/01/01 01:37:13;;;;;;;22.17;10.23;;;;;;;;;;21250671;27;20074;-62
2023/01/01 01:47:19;;;;;;;19.90;9.75;;;;;;;;;;21250694;27;20533;-65
2023/01/01 01:57:24;;;;;;;21.70;9.80;;;;;;;;;;21249568;27;20079;-62
2023/01/01 02:07:27;;;;;;;20.05;8.95;;;;;;;;;;21250716;27;20100;-63
2023/01/01 02:17:32;;;;;;;17.80;8.90;;;;;;;;;;21249611;28;20055;-62
2023/01/01 02:27:45;;;;;;;19.88;8.52;;;;;;;;;;21252613;28;20047;-62
2023/01/01 02:37:59;;;;;;;18.08;9.40;;;;;;;;;;21251975;28;20051;-62
2023/01/01 02:48:33;;;;;;;24.05;9.48;;;;;;;;;;21249595;28;20053;-63
2023/01/01 03:09:35;;;;;;;17.33;9.65;;;;;;;;;;21265594;27;20496;-63
2023/01/01 03:19:51;;;;;;;22.42;8.43;;;;;;;;;;21261742;27;20070;-63
2023/01/01 03:29:56;;;;;;;17.00;9.10;;;;;;;;;;21262289;27;20039;-63
2023/01/01 03:40:04;;;;;;;23.55;9.82;;;;;;;;;;21260873;27;20058;-63
2023/01/01 03:50:11;;;;;;;17.73;8.35;;;;;;;;;;21258959;27;20047;-63
2023/01/01 04:00:20;;;;;;;20.95;9.10;;;;;;;;;;21257961;27;20047;-63
2023/01/01 04:10:29;;;;;;;24.27;9.80;;;;;;;;;;21257464;27;20066;-64
2023/01/01 04:20:35;;;;;;;16.75;7.65;;;;;;;;;;21257143;27;20078;-64
2023/01/01 04:30:42;;;;;;;14.30;5.40;;;;;;;;;;21255787;27;20043;-62
2023/01/01 04:40:56;;;;;;;13.18;6.13;;;;;;;;;;21255087;27;20061;-63
2023/01/01 04:51:19;;;;;;;17.27;6.72;;;;;;;;;;21254727;27;20062;-62
2023/01/01 05:01:28;;;;;;;21.05;8.48;;;;;;;;;;21253234;27;20499;-64
2023/01/01 05:11:32;;;;;;;20.83;8.98;;;;;;;;;;21252650;27;20047;-63
2023/01/01 05:21:36;;;;;;;15.77;7.32;;;;;;;;;;21251522;27;20047;-62
2023/01/01 05:31:40;;;;;;;15.45;7.05;;;;;;;;;;21251987;27;20475;-63
2023/01/01 05:41:42;;;;;;;17.27;7.45;;;;;;;;;;21249810;27;20475;-63
2023/01/01 05:51:45;;;;;;;13.13;7.03;;;;;;;;;;21250779;27;20042;-62
2023/01/01 06:01:48;;;;;;;14.02;6.45;;;;;;;;;;21248834;27;20055;-62
2023/01/01 06:11:51;;;;;;;13.18;5.35;;;;;;;;;;21249308;27;20043;-61
2023/01/01 06:21:54;;;;;;;20.30;6.60;;;;;;;;;;21250242;28;20046;-62
2023/01/01 06:31:58;;;;;;;16.38;5.80;;;;;;;;;;21248427;27;20100;-62
2023/01/01 06:42:01;;;;;;;14.25;6.15;;;;;;;;;;21264675;27;20448;-62
2023/01/01 06:52:04;;;;;;;14.73;6.22;;;;;;;;;;21263976;27;20444;-62
2023/01/01 07:02:08;;;;;;;13.18;5.72;;;;;;;;;;21262810;27;20055;-62
2023/01/01 07:12:11;;;;;;;12.02;5.45;;;;;;;;;;21262961;27;20531;-64
2023/01/01 07:22:13;;;;;;;14.73;5.13;;;;;;;;;;21261297;27;20388;-63
2023/01/01 07:32:17;;;;;;;10.73;4.95;;;;;;;;;;21261593;27;20043;-62
2023/01/01 07:42:19;;;;;;;10.95;4.60;;;;;;;;;;21259017;27;20051;-62
2023/01/01 07:52:22;;;;;;;14.40;5.18;;;;;;;;;;21258488;27;20134;-63
2023/01/01 08:02:26;;;;;;;11.48;5.00;;;;;;;;;;21258608;27;20054;-63
2023/01/01 08:12:28;;;;;;;15.75;5.57;;;;;;;;;;21257672;27;20102;-63
2023/01/01 08:22:31;;;;;;;13.70;5.72;;;;;;;;;;21256589;27;20051;-63
2023/01/01 08:32:34;;;;;;;10.73;5.13;;;;;;;;;;21256827;27;20402;-63
2023/01/01 08:42:36;;;;;;;8.82;4.65;;;;;;;;;;21255621;27;20475;-64
2023/01/01 08:52:38;;;;;;;8.52;3.97;;;;;;;;;;21254054;27;20096;-62
2023/01/01 09:02:41;;;;;;;16.83;4.55;;;;;;;;;;21253583;27;20503;-63
2023/01/01 09:12:46;;;;;;;11.07;4.97;;;;;;;;;;21252626;27;20090;-63
2023/01/01 09:22:48;;;;;;;9.13;4.10;;;;;;;;;;21252240;27;20141;-63
2023/01/01 09:32:51;;;;;;;14.45;5.90;;;;;;;;;;21251561;27;20103;-62
2023/01/01 09:43:11;;;;;;;10.43;4.47;;;;;;;;;;21249889;27;20058;-64
2023/01/01 09:53:18;;;;;;;11.30;5.22;;;;;;;;;;21250738;27;20047;-64
2023/01/01 10:03:42;;;;;;;15.07;6.35;;;;;;;;;;21249130;27;20134;-62
2023/01/01 10:13:45;;;;;;;14.27;4.40;;;;;;;;;;21248238;27;20047;-62
2023/01/01 10:23:58;;;;;;;8.40;3.90;;;;;;;;;;21248894;28;20058;-62
2023/01/01 10:34:19;;;;;;;12.40;4.75;;;;;;;;;;21248505;28;20043;-63
2023/01/01 10:44:32;;;;;;;12.57;4.20;;;;;;;;;;21247629;28;20078;-63
2023/01/01 10:54:38;;;;;;;13.85;4.03;;;;;;;;;;21247839;28;20399;-63
2023/01/01 11:04:40;;;;;;;10.75;4.93;;;;;;;;;;21247132;28;20392;-63
2023/01/01 11:14:52;;;;;;;11.32;3.72;;;;;;;;;;21246973;28;20047;-63
2023/01/01 11:24:59;;;;;;;7.63;3.50;;;;;;;;;;21236780;27;20403;-64
2023/01/01 11:35:05;;;;;;;7.03;2.60;;;;;;;;;;21262385;27;20051;-64
2023/01/01 11:45:27;;;;;;;7.65;1.90;;;;;;;;;;21260702;27;20509;-63
2023/01/01 11:55:38;;;;;;;4.78;2.00;;;;;;;;;;21259077;27;20128;-62
2023/01/01 12:05:40;;;;;;;6.05;1.80;;;;;;;;;;21257901;27;20517;-63
2023/01/01 12:15:51;;;;;;;4.15;1.30;;;;;;;;;;21257615;27;20043;-62
2023/01/01 12:26:15;;;;;;;4.55;1.60;;;;;;;;;;21257430;27;20407;-62
2023/01/01 12:36:26;;;;;;;5.53;1.10;;;;;;;;;;21255573;27;20527;-63
2023/01/01 12:46:40;;;;;;;3.22;1.08;;;;;;;;;;21255272;27;20429;-62
2023/01/01 12:57:05;;;;;;;5.18;1.42;;;;;;;;;;21254751;27;20051;-63
2023/01/01 13:07:09;;;;;;;3.45;1.48;;;;;;;;;;21253144;27;20402;-64
2023/01/01 13:17:20;;;;;;;7.05;2.15;;;;;;;;;;21235281;27;20108;-63
2023/01/01 13:27:48;;;;;;;3.17;1.27;;;;;;;;;;21252479;27;20482;-62
2023/01/01 13:37:51;;;;;;;3.80;1.80;;;;;;;;;;21249982;27;20130;-64
2023/01/01 13:48:06;;;;;;;6.10;2.00;;;;;;;;;;21249403;27;20039;-64
2023/01/01 13:58:28;;;;;;;4.95;1.90;;;;;;;;;;21250270;27;20055;-63
2023/01/01 14:08:32;;;;;;;3.63;1.30;;;;;;;;;;21251906;27;20047;-63
2023/01/01 14:18:43;;;;;;;4.88;2.17;;;;;;;;;;21231913;27;20083;-62
2023/01/01 14:28:45;;;;;;;3.40;1.20;;;;;;;;;;21249800;28;20043;-63
2023/01/01 14:38:48;;;;;;;6.95;2.92;;;;;;;;;;21235299;28;20134;-63
2023/01/01 14:48:56;;;;;;;4.05;1.85;;;;;;;;;;21249205;28;20043;-62
2023/01/01 14:59:11;;;;;;;5.65;3.22;;;;;;;;;;21256309;27;20047;-63
2023/01/01 15:09:15;;;;;;;5.97;2.25;;;;;;;;;;21262508;27;20047;-62
2023/01/01 15:19:18;;;;;;;8.02;2.90;;;;;;;;;;21261827;27;20054;-63
2023/01/01 15:29:49;;;;;;;3.65;1.63;;;;;;;;;;21264400;27;20047;-62
2023/01/01 15:39:53;;;;;;;8.60;2.00;;;;;;;;;;20915873;28;20543;-62
2023/01/01 15:50:19;;;;;;;4.72;1.60;;;;;;;;;;20897423;28;20104;-62
2023/01/01 16:00:22;;;;;;;3.25;1.60;;;;;;;;;;20913423;28;20545;-62
2023/01/01 16:10:25;;;;;;;3.53;1.33;;;;;;;;;;21015647;27;20050;-63
2023/01/01 16:20:29;;;;;;;6.40;3.45;;;;;;;;;;21257113;27;20051;-63
2023/01/01 16:30:32;;;;;;;6.22;2.67;;;;;;;;;;21256906;27;20053;-62
2023/01/01 16:40:35;;;;;;;8.13;2.75;;;;;;;;;;21255554;27;20538;-62
2023/01/01 16:50:37;;;;;;;5.88;2.67;;;;;;;;;;21253920;27;20510;-62
2023/01/01 17:00:39;;;;;;;8.55;3.22;;;;;;;;;;21252456;27;20051;-62
2023/01/01 17:10:43;;;;;;;10.65;5.00;;;;;;;;;;21252224;27;20050;-64
2023/01/01 17:20:45;;;;;;;9.70;4.68;;;;;;;;;;21251739;27;20083;-62
2023/01/01 17:30:47;;;;;;;38.03;22.08;;;;;;;;;;21251104;27;20410;-63
2023/01/01 17:40:49;;;;;;;11.00;4.72;;;;;;;;;;21251282;27;20402;-64
2023/01/01 17:50:52;;;;;;;13.10;6.78;;;;;;;;;;21250760;27;20451;-62
2023/01/01 18:01:03;;;;;;;12.30;5.03;;;;;;;;;;21249113;27;20068;-61
2023/01/01 18:11:05;;;;;;;12.65;5.82;;;;;;;;;;21248669;27;20070;-62
2023/01/01 18:21:20;;;;;;;14.45;6.00;;;;;;;;;;21247664;27;20090;-62
2023/01/01 18:31:23;;;;;;;12.00;6.57;;;;;;;;;;21253456;27;20050;-64
2023/01/01 18:41:43;;;;;;;12.00;6.85;;;;;;;;;;21266228;27;20411;-64
2023/01/01 18:51:51;;;;;;;14.07;6.15;;;;;;;;;;21265602;27;20051;-68
2023/01/01 19:01:53;;;;;;;14.18;6.25;;;;;;;;;;21264842;27;20490;-66
2023/01/01 19:11:55;;;;;;;18.88;6.80;;;;;;;;;;21263234;27;20402;-64
2023/01/01 19:22:06;;;;;;;14.48;5.78;;;;;;;;;;21262181;27;20475;-63
2023/01/01 19:32:07;;;;;;;22.45;11.38;;;;;;;;;;21260884;27;20443;-63
2023/01/01 19:42:11;;;;;;;12.73;5.72;;;;;;;;;;21259852;27;20047;-63
2023/01/01 19:52:13;;;;;;;15.15;5.60;;;;;;;;;;21259282;27;20047;-63
2023/01/01 20:02:14;;;;;;;12.18;6.30;;;;;;;;;;21257973;27;20055;-63
2023/01/01 20:12:16;;;;;;;12.70;5.20;;;;;;;;;;21257395;27;20080;-63
2023/01/01 20:22:20;;;;;;;11.10;6.05;;;;;;;;;;21257514;27;20055;-63
2023/01/01 20:32:24;;;;;;;21.55;9.70;;;;;;;;;;21258158;27;20043;-63
2023/01/01 20:42:27;;;;;;;21.35;9.57;;;;;;;;;;21255877;27;20087;-63
2023/01/01 20:52:29;;;;;;;22.40;11.27;;;;;;;;;;21254762;27;20043;-64
2023/01/01 21:02:31;;;;;;;14.82;8.13;;;;;;;;;;21253279;27;20065;-64
2023/01/01 21:12:36;;;;;;;30.45;16.05;;;;;;;;;;21252726;27;20044;-63
2023/01/01 21:22:41;;;;;;;15.77;8.02;;;;;;;;;;21252353;27;20097;-64
2023/01/01 21:32:44;;;;;;;8.70;5.55;;;;;;;;;;21251411;27;20088;-64
2023/01/01 21:42:46;;;;;;;15.70;7.88;;;;;;;;;;21249315;27;20051;-63
2023/01/01 21:52:48;;;;;;;11.10;6.40;;;;;;;;;;21244436;27;20043;-63
2023/01/01 22:02:50;;;;;;;13.52;5.85;;;;;;;;;;21245883;27;20124;-64
2023/01/01 22:12:56;;;;;;;12.50;5.65;;;;;;;;;;21248626;27;20043;-63
2023/01/01 22:22:59;;;;;;;10.32;5.82;;;;;;;;;;21249007;27;20051;-63
2023/01/01 22:33:01;;;;;;;8.73;4.45;;;;;;;;;;21248185;28;20463;-63
2023/01/01 22:43:05;;;;;;;12.82;6.80;;;;;;;;;;21247194;28;20043;-63
2023/01/01 22:53:07;;;;;;;8.35;4.30;;;;;;;;;;21247562;28;20484;-64
2023/01/01 23:03:11;;;;;;;8.13;4.10;;;;;;;;;;21246518;28;20150;-64
2023/01/01 23:23:35;;;;;;;4.93;1.50;;;;;;;;;;21261147;27;20099;-62
2023/01/01 23:33:37;;;;;;;6.18;1.50;;;;;;;;;;21260980;27;20100;-63
2023/01/01 23:43:39;;;;;;;5.95;1.25;;;;;;;;;;21260479;27;20409;-64
2023/01/01 23:53:41;;;;;;;5.45;0.88;;;;;;;;;;21260560;27;20043;-64
